sensor_id;sensor_type;location;lat;lon;timestamp;temperature;humidity
14487;DHT22;7329;50.866;4.366;2022-07-05T00:00:53;23.80;99.90
14487;DHT22;7329;50.866;4.366;2022-07-05T00:02:57;23.80;99.90
14487;DHT22;7329;50.866;4.366;2022-07-05T00:04:59;23.80;99.90
14487;DHT22;7329;50.866;4.366;2022-07-05T00:07:02;23.80;99.90
14487;DHT22;7329;50.866;4.366;2022-07-05T00:09:19;23.80;99.90
14487;DHT22;7329;50.866;4.366;2022-07-05T00:11:22;23.70;99.90
14487;DHT22;7329;50.866;4.366;2022-07-05T00:13:24;23.70;99.90
14487;DHT22;7329;50.866;4.366;2022-07-05T00:15:26;23.70;99.90
14487;DHT22;7329;50.866;4.366;2022-07-05T00:17:29;23.70;99.90
14487;DHT22;7329;50.866;4.366;2022-07-05T00:19:33;23.70;99.90
14487;DHT22;7329;50.866;4.366;2022-07-05T00:21:35;23.70;99.90
14487;DHT22;7329;50.866;4.366;2022-07-05T00:23:38;23.70;99.90
14487;DHT22;7329;50.866;4.366;2022-07-05T00:25:40;23.70;99.90
14487;DHT22;7329;50.866;4.366;2022-07-05T00:27:42;23.70;99.90
14487;DHT22;7329;50.866;4.366;2022-07-05T00:29:45;23.70;99.90
14487;DHT22;7329;50.866;4.366;2022-07-05T00:31:47;23.70;99.90
14487;DHT22;7329;50.866;4.366;2022-07-05T00:33:49;23.70;99.90
14487;DHT22;7329;50.866;4.366;2022-07-05T00:35:53;23.70;99.90
14487;DHT22;7329;50.866;4.366;2022-07-05T00:37:55;23.70;99.90
14487;DHT22;7329;50.866;4.366;2022-07-05T00:39:58;23.70;99.90
14487;DHT22;7329;50.866;4.366;2022-07-05T00:42:01;23.70;99.90
14487;DHT22;7329;50.866;4.366;2022-07-05T00:44:04;23.70;99.90
14487;DHT22;7329;50.866;4.366;2022-07-05T00:46:07;23.70;99.90
14487;DHT22;7329;50.866;4.366;2022-07-05T00:48:09;23.70;99.90
14487;DHT22;7329;50.866;4.366;2022-07-05T00:50:12;23.70;99.90
14487;DHT22;7329;50.866;4.366;2022-07-05T00:52:16;23.70;99.90
14487;DHT22;7329;50.866;4.366;2022-07-05T00:54:19;23.70;99.90
14487;DHT22;7329;50.866;4.366;2022-07-05T00:56:24;23.70;99.90
14487;DHT22;7329;50.866;4.366;2022-07-05T00:58:27;23.70;99.90
14487;DHT22;7329;50.866;4.366;2022-07-05T01:00:30;23.70;99.90
14487;DHT22;7329;50.866;4.366;2022-07-05T01:02:33;23.60;99.90
14487;DHT22;7329;50.866;4.366;2022-07-05T01:04:35;23.60;99.90
14487;DHT22;7329;50.866;4.366;2022-07-05T01:06:38;23.70;99.90
14487;DHT22;7329;50.866;4.366;2022-07-05T01:08:42;23.60;99.90
14487;DHT22;7329;50.866;4.366;2022-07-05T01:10:46;23.60;99.90
14487;DHT22;7329;50.866;4.366;2022-07-05T01:12:49;23.60;99.90
14487;DHT22;7329;50.866;4.366;2022-07-05T01:14:51;23.60;99.90
14487;DHT22;7329;50.866;4.366;2022-07-05T01:16:54;23.60;99.90
14487;DHT22;7329;50.866;4.366;2022-07-05T01:18:57;23.60;99.90
14487;DHT22;7329;50.866;4.366;2022-07-05T01:21:01;23.60;99.90
14487;DHT22;7329;50.866;4.366;2022-07-05T01:23:05;23.50;99.90
14487;DHT22;7329;50.866;4.366;2022-07-05T01:25:08;23.60;99.90
14487;DHT22;7329;50.866;4.366;2022-07-05T01:27:11;23.60;99.90
14487;DHT22;7329;50.866;4.366;2022-07-05T01:29:14;23.60;99.90
14487;DHT22;7329;50.866;4.366;2022-07-05T01:31:17;23.60;99.90
14487;DHT22;7329;50.866;4.366;2022-07-05T01:33:19;23.50;99.90
14487;DHT22;7329;50.866;4.366;2022-07-05T01:35:28;23.50;99.90
14487;DHT22;7329;50.866;4.366;2022-07-05T01:37:30;23.60;99.90
14487;DHT22;7329;50.866;4.366;2022-07-05T01:39:34;23.50;99.90
14487;DHT22;7329;50.866;4.366;2022-07-05T01:41:37;23.50;99.90
14487;DHT22;7329;50.866;4.366;2022-07-05T01:43:39;23.50;99.90
14487;DHT22;7329;50.866;4.366;2022-07-05T01:45:43;23.50;99.90
14487;DHT22;7329;50.866;4.366;2022-07-05T01:47:47;23.60;99.90
14487;DHT22;7329;50.866;4.366;2022-07-05T01:49:53;23.50;99.90
14487;DHT22;7329;50.866;4.366;2022-07-05T01:52:02;23.50;99.90
14487;DHT22;7329;50.866;4.366;2022-07-05T01:54:04;23.50;99.90
14487;DHT22;7329;50.866;4.366;2022-07-05T01:56:08;23.50;99.90
14487;DHT22;7329;50.866;4.366;2022-07-05T01:58:11;23.50;99.90
14487;DHT22;7329;50.866;4.366;2022-07-05T02:00:14;23.50;99.90
14487;DHT22;7329;50.866;4.366;2022-07-05T02:02:16;23.50;99.90
14487;DHT22;7329;50.866;4.366;2022-07-05T02:04:20;23.50;99.90
14487;DHT22;7329;50.866;4.366;2022-07-05T02:06:22;23.50;99.90
14487;DHT22;7329;50.866;4.366;2022-07-05T02:08:29;23.50;99.90
14487;DHT22;7329;50.866;4.366;2022-07-05T02:10:31;23.50;99.90
14487;DHT22;7329;50.866;4.366;2022-07-05T02:12:35;23.50;99.90
14487;DHT22;7329;50.866;4.366;2022-07-05T02:14:37;23.40;99.90
14487;DHT22;7329;50.866;4.366;2022-07-05T02:16:40;23.50;99.90
14487;DHT22;7329;50.866;4.366;2022-07-05T02:18:42;23.40;99.90
14487;DHT22;7329;50.866;4.366;2022-07-05T02:20:45;23.50;99.90
14487;DHT22;7329;50.866;4.366;2022-07-05T02:22:47;23.40;99.90
14487;DHT22;7329;50.866;4.366;2022-07-05T02:24:49;23.50;99.90
14487;DHT22;7329;50.866;4.366;2022-07-05T02:26:52;23.50;99.90
14487;DHT22;7329;50.866;4.366;2022-07-05T02:28:55;23.50;99.90
14487;DHT22;7329;50.866;4.366;2022-07-05T02:30:58;23.40;99.90
14487;DHT22;7329;50.866;4.366;2022-07-05T02:33:00;23.50;99.90
14487;DHT22;7329;50.866;4.366;2022-07-05T02:35:03;23.50;99.90
14487;DHT22;7329;50.866;4.366;2022-07-05T02:37:06;23.50;99.90
14487;DHT22;7329;50.866;4.366;2022-07-05T02:39:08;23.50;99.90
14487;DHT22;7329;50.866;4.366;2022-07-05T02:41:11;23.50;99.90
14487;DHT22;7329;50.866;4.366;2022-07-05T02:43:14;23.40;99.90
14487;DHT22;7329;50.866;4.366;2022-07-05T02:45:17;23.40;99.90
14487;DHT22;7329;50.866;4.366;2022-07-05T02:47:20;23.40;99.90
14487;DHT22;7329;50.866;4.366;2022-07-05T02:49:22;23.40;99.90
14487;DHT22;7329;50.866;4.366;2022-07-05T02:51:24;23.40;99.90
14487;DHT22;7329;50.866;4.366;2022-07-05T02:53:27;23.40;99.90
14487;DHT22;7329;50.866;4.366;2022-07-05T02:55:29;23.40;99.90
14487;DHT22;7329;50.866;4.366;2022-07-05T02:57:32;23.40;99.90
14487;DHT22;7329;50.866;4.366;2022-07-05T02:59:34;23.40;99.90
14487;DHT22;7329;50.866;4.366;2022-07-05T03:01:37;23.40;99.90
14487;DHT22;7329;50.866;4.366;2022-07-05T03:03:40;23.40;99.90
14487;DHT22;7329;50.866;4.366;2022-07-05T03:05:42;23.40;99.90
14487;DHT22;7329;50.866;4.366;2022-07-05T03:07:45;23.40;99.90
14487;DHT22;7329;50.866;4.366;2022-07-05T03:09:47;23.40;99.90
14487;DHT22;7329;50.866;4.366;2022-07-05T03:11:49;23.40;99.90
14487;DHT22;7329;50.866;4.366;2022-07-05T03:13:51;23.40;99.90
14487;DHT22;7329;50.866;4.366;2022-07-05T03:15:54;23.40;99.90
14487;DHT22;7329;50.866;4.366;2022-07-05T03:17:57;23.40;99.90
14487;DHT22;7329;50.866;4.366;2022-07-05T03:20:00;23.40;99.90
14487;DHT22;7329;50.866;4.366;2022-07-05T03:22:02;23.40;99.90
14487;DHT22;7329;50.866;4.366;2022-07-05T03:24:05;23.30;99.90
14487;DHT22;7329;50.866;4.366;2022-07-05T03:26:07;23.30;99.90
14487;DHT22;7329;50.866;4.366;2022-07-05T03:28:10;23.30;99.90
14487;DHT22;7329;50.866;4.366;2022-07-05T03:30:13;23.30;99.90
14487;DHT22;7329;50.866;4.366;2022-07-05T03:32:15;23.30;99.90
14487;DHT22;7329;50.866;4.366;2022-07-05T03:34:19;23.30;99.90
14487;DHT22;7329;50.866;4.366;2022-07-05T03:36:21;23.30;99.90
14487;DHT22;7329;50.866;4.366;2022-07-05T03:38:23;23.30;99.90
14487;DHT22;7329;50.866;4.366;2022-07-05T03:40:26;23.30;99.90
14487;DHT22;7329;50.866;4.366;2022-07-05T03:42:28;23.30;99.90
14487;DHT22;7329;50.866;4.366;2022-07-05T03:44:31;23.30;99.90
14487;DHT22;7329;50.866;4.366;2022-07-05T03:46:34;23.30;99.90
14487;DHT22;7329;50.866;4.366;2022-07-05T03:48:36;23.30;99.90
14487;DHT22;7329;50.866;4.366;2022-07-05T03:50:40;23.30;99.90
14487;DHT22;7329;50.866;4.366;2022-07-05T03:52:42;23.30;99.90
14487;DHT22;7329;50.866;4.366;2022-07-05T03:54:44;23.30;99.90
14487;DHT22;7329;50.866;4.366;2022-07-05T03:56:46;23.30;99.90
14487;DHT22;7329;50.866;4.366;2022-07-05T03:58:49;23.20;99.90
14487;DHT22;7329;50.866;4.366;2022-07-05T04:00:52;23.20;99.90
14487;DHT22;7329;50.866;4.366;2022-07-05T04:02:54;23.20;99.90
14487;DHT22;7329;50.866;4.366;2022-07-05T04:04:57;23.20;99.90
14487;DHT22;7329;50.866;4.366;2022-07-05T04:07:00;23.20;99.90
14487;DHT22;7329;50.866;4.366;2022-07-05T04:09:03;23.20;99.90
14487;DHT22;7329;50.866;4.366;2022-07-05T04:11:05;23.20;99.90
14487;DHT22;7329;50.866;4.366;2022-07-05T04:13:08;23.20;99.90
14487;DHT22;7329;50.866;4.366;2022-07-05T04:15:11;23.20;99.90
14487;DHT22;7329;50.866;4.366;2022-07-05T04:17:13;23.20;99.90
14487;DHT22;7329;50.866;4.366;2022-07-05T04:19:16;23.20;99.90
14487;DHT22;7329;50.866;4.366;2022-07-05T04:21:18;23.20;99.90
14487;DHT22;7329;50.866;4.366;2022-07-05T04:23:21;23.20;99.90
14487;DHT22;7329;50.866;4.366;2022-07-05T04:25:24;23.20;99.90
14487;DHT22;7329;50.866;4.366;2022-07-05T04:27:26;23.20;99.90
14487;DHT22;7329;50.866;4.366;2022-07-05T04:29:28;23.20;99.90
14487;DHT22;7329;50.866;4.366;2022-07-05T04:31:31;23.20;99.90
14487;DHT22;7329;50.866;4.366;2022-07-05T04:33:33;23.20;99.90
14487;DHT22;7329;50.866;4.366;2022-07-05T04:35:35;23.20;99.90
14487;DHT22;7329;50.866;4.366;2022-07-05T04:37:39;23.20;99.90
14487;DHT22;7329;50.866;4.366;2022-07-05T04:39:43;23.20;99.90
14487;DHT22;7329;50.866;4.366;2022-07-05T04:41:45;23.20;99.90
14487;DHT22;7329;50.866;4.366;2022-07-05T04:43:47;23.20;99.90
14487;DHT22;7329;50.866;4.366;2022-07-05T04:45:50;23.20;99.90
14487;DHT22;7329;50.866;4.366;2022-07-05T04:47:52;23.20;99.90
14487;DHT22;7329;50.866;4.366;2022-07-05T04:49:55;23.20;99.90
14487;DHT22;7329;50.866;4.366;2022-07-05T04:51:58;23.10;99.90
14487;DHT22;7329;50.866;4.366;2022-07-05T04:54:00;23.20;99.90
14487;DHT22;7329;50.866;4.366;2022-07-05T04:56:04;23.20;99.90
14487;DHT22;7329;50.866;4.366;2022-07-05T04:58:07;23.20;99.90
14487;DHT22;7329;50.866;4.366;2022-07-05T05:00:11;23.20;99.90
14487;DHT22;7329;50.866;4.366;2022-07-05T05:02:14;23.20;99.90
14487;DHT22;7329;50.866;4.366;2022-07-05T05:04:17;23.20;99.90
14487;DHT22;7329;50.866;4.366;2022-07-05T05:06:19;23.20;99.90
14487;DHT22;7329;50.866;4.366;2022-07-05T05:08:21;23.20;99.90
14487;DHT22;7329;50.866;4.366;2022-07-05T05:10:23;23.10;99.90
14487;DHT22;7329;50.866;4.366;2022-07-05T05:12:27;23.20;99.90
14487;DHT22;7329;50.866;4.366;2022-07-05T05:14:30;23.20;99.90
14487;DHT22;7329;50.866;4.366;2022-07-05T05:16:32;23.20;99.90
14487;DHT22;7329;50.866;4.366;2022-07-05T05:18:34;23.20;99.90
14487;DHT22;7329;50.866;4.366;2022-07-05T05:20:37;23.20;99.90
14487;DHT22;7329;50.866;4.366;2022-07-05T05:22:39;23.20;99.90
14487;DHT22;7329;50.866;4.366;2022-07-05T05:24:41;23.20;99.90
14487;DHT22;7329;50.866;4.366;2022-07-05T05:26:44;23.20;99.90
14487;DHT22;7329;50.866;4.366;2022-07-05T05:28:47;23.20;99.90
14487;DHT22;7329;50.866;4.366;2022-07-05T05:30:50;23.20;99.90
14487;DHT22;7329;50.866;4.366;2022-07-05T05:32:52;23.20;99.90
14487;DHT22;7329;50.866;4.366;2022-07-05T05:34:54;23.20;99.90
14487;DHT22;7329;50.866;4.366;2022-07-05T05:36:57;23.20;99.90
14487;DHT22;7329;50.866;4.366;2022-07-05T05:38:59;23.20;99.90
14487;DHT22;7329;50.866;4.366;2022-07-05T05:41:04;23.20;99.90
14487;DHT22;7329;50.866;4.366;2022-07-05T05:43:07;23.20;99.90
14487;DHT22;7329;50.866;4.366;2022-07-05T05:45:11;23.20;99.90
14487;DHT22;7329;50.866;4.366;2022-07-05T05:47:13;23.20;99.90
14487;DHT22;7329;50.866;4.366;2022-07-05T05:49:16;23.20;99.90
14487;DHT22;7329;50.866;4.366;2022-07-05T05:51:18;23.20;99.90
14487;DHT22;7329;50.866;4.366;2022-07-05T05:53:21;23.20;99.90
14487;DHT22;7329;50.866;4.366;2022-07-05T05:55:24;23.20;99.90
14487;DHT22;7329;50.866;4.366;2022-07-05T05:57:26;23.20;99.90
14487;DHT22;7329;50.866;4.366;2022-07-05T05:59:29;23.20;99.90
14487;DHT22;7329;50.866;4.366;2022-07-05T06:01:32;23.20;99.90
14487;DHT22;7329;50.866;4.366;2022-07-05T06:03:35;23.20;99.90
14487;DHT22;7329;50.866;4.366;2022-07-05T06:05:37;23.20;99.90
14487;DHT22;7329;50.866;4.366;2022-07-05T06:07:49;23.20;99.90
14487;DHT22;7329;50.866;4.366;2022-07-05T06:09:52;23.20;99.90
14487;DHT22;7329;50.866;4.366;2022-07-05T06:11:55;23.20;99.90
14487;DHT22;7329;50.866;4.366;2022-07-05T06:13:57;23.20;99.90
14487;DHT22;7329;50.866;4.366;2022-07-05T06:15:59;23.20;99.90
14487;DHT22;7329;50.866;4.366;2022-07-05T06:18:04;23.20;99.90
14487;DHT22;7329;50.866;4.366;2022-07-05T06:20:08;23.20;99.90
14487;DHT22;7329;50.866;4.366;2022-07-05T06:22:10;23.20;99.90
14487;DHT22;7329;50.866;4.366;2022-07-05T06:24:13;23.20;99.90
14487;DHT22;7329;50.866;4.366;2022-07-05T06:26:15;23.20;99.90
14487;DHT22;7329;50.866;4.366;2022-07-05T06:28:17;23.30;99.90
14487;DHT22;7329;50.866;4.366;2022-07-05T06:30:21;23.30;99.90
14487;DHT22;7329;50.866;4.366;2022-07-05T06:32:24;23.20;99.90
14487;DHT22;7329;50.866;4.366;2022-07-05T06:34:28;23.20;99.90
14487;DHT22;7329;50.866;4.366;2022-07-05T06:36:30;23.20;99.90
14487;DHT22;7329;50.866;4.366;2022-07-05T06:38:33;23.30;99.90
14487;DHT22;7329;50.866;4.366;2022-07-05T06:40:36;23.20;99.90
14487;DHT22;7329;50.866;4.366;2022-07-05T06:42:38;23.30;99.90
14487;DHT22;7329;50.866;4.366;2022-07-05T06:44:41;23.30;99.90
14487;DHT22;7329;50.866;4.366;2022-07-05T06:46:44;23.30;99.90
14487;DHT22;7329;50.866;4.366;2022-07-05T06:48:46;23.30;99.90
14487;DHT22;7329;50.866;4.366;2022-07-05T06:50:50;23.30;99.90
14487;DHT22;7329;50.866;4.366;2022-07-05T06:52:53;23.30;99.90
14487;DHT22;7329;50.866;4.366;2022-07-05T06:54:55;23.30;99.90
14487;DHT22;7329;50.866;4.366;2022-07-05T06:56:58;23.30;99.90
14487;DHT22;7329;50.866;4.366;2022-07-05T06:59:00;23.30;99.90
14487;DHT22;7329;50.866;4.366;2022-07-05T07:01:02;23.30;99.90
14487;DHT22;7329;50.866;4.366;2022-07-05T07:03:04;23.10;99.90
14487;DHT22;7329;50.866;4.366;2022-07-05T07:05:08;22.80;99.90
14487;DHT22;7329;50.866;4.366;2022-07-05T07:07:12;22.50;99.90
14487;DHT22;7329;50.866;4.366;2022-07-05T07:09:28;22.30;99.90
14487;DHT22;7329;50.866;4.366;2022-07-05T07:11:31;22.20;99.90
14487;DHT22;7329;50.866;4.366;2022-07-05T07:13:33;22.10;99.90
14487;DHT22;7329;50.866;4.366;2022-07-05T07:15:36;22.00;99.90
14487;DHT22;7329;50.866;4.366;2022-07-05T07:17:39;21.90;99.90
14487;DHT22;7329;50.866;4.366;2022-07-05T07:19:42;21.90;99.90
14487;DHT22;7329;50.866;4.366;2022-07-05T07:21:44;21.90;99.90
14487;DHT22;7329;50.866;4.366;2022-07-05T07:23:48;22.00;99.90
14487;DHT22;7329;50.866;4.366;2022-07-05T07:25:50;22.00;99.90
14487;DHT22;7329;50.866;4.366;2022-07-05T07:27:54;22.00;99.90
14487;DHT22;7329;50.866;4.366;2022-07-05T07:29:57;21.90;99.90
14487;DHT22;7329;50.866;4.366;2022-07-05T07:32:00;22.00;99.90
14487;DHT22;7329;50.866;4.366;2022-07-05T07:34:02;22.00;99.90
14487;DHT22;7329;50.866;4.366;2022-07-05T07:36:05;22.10;99.90
14487;DHT22;7329;50.866;4.366;2022-07-05T07:38:07;22.20;99.90
14487;DHT22;7329;50.866;4.366;2022-07-05T07:40:11;22.20;99.90
14487;DHT22;7329;50.866;4.366;2022-07-05T07:42:13;22.10;99.90
14487;DHT22;7329;50.866;4.366;2022-07-05T07:44:16;22.10;99.90
14487;DHT22;7329;50.866;4.366;2022-07-05T07:46:18;22.20;99.90
14487;DHT22;7329;50.866;4.366;2022-07-05T07:48:20;22.30;99.90
14487;DHT22;7329;50.866;4.366;2022-07-05T07:50:23;22.40;99.90
14487;DHT22;7329;50.866;4.366;2022-07-05T07:52:26;22.40;99.90
14487;DHT22;7329;50.866;4.366;2022-07-05T07:54:28;22.30;99.90
14487;DHT22;7329;50.866;4.366;2022-07-05T07:56:32;22.20;99.90
14487;DHT22;7329;50.866;4.366;2022-07-05T07:58:34;22.30;99.90
14487;DHT22;7329;50.866;4.366;2022-07-05T08:00:36;22.30;99.90
14487;DHT22;7329;50.866;4.366;2022-07-05T08:02:41;22.30;99.90
14487;DHT22;7329;50.866;4.366;2022-07-05T08:04:43;22.20;99.90
14487;DHT22;7329;50.866;4.366;2022-07-05T08:06:45;22.30;99.90
14487;DHT22;7329;50.866;4.366;2022-07-05T08:08:48;22.30;99.90
14487;DHT22;7329;50.866;4.366;2022-07-05T08:10:50;22.40;99.90
14487;DHT22;7329;50.866;4.366;2022-07-05T08:12:54;22.40;99.90
14487;DHT22;7329;50.866;4.366;2022-07-05T08:14:56;22.50;99.90
14487;DHT22;7329;50.866;4.366;2022-07-05T08:16:58;22.40;99.90
14487;DHT22;7329;50.866;4.366;2022-07-05T08:19:01;22.40;99.90
14487;DHT22;7329;50.866;4.366;2022-07-05T08:21:21;22.40;99.90
14487;DHT22;7329;50.866;4.366;2022-07-05T08:23:31;22.40;99.90
14487;DHT22;7329;50.866;4.366;2022-07-05T08:25:34;22.40;99.90
14487;DHT22;7329;50.866;4.366;2022-07-05T08:27:36;22.40;99.90
14487;DHT22;7329;50.866;4.366;2022-07-05T08:29:40;22.50;99.90
14487;DHT22;7329;50.866;4.366;2022-07-05T08:31:45;22.60;99.90
14487;DHT22;7329;50.866;4.366;2022-07-05T08:33:48;22.50;99.90
14487;DHT22;7329;50.866;4.366;2022-07-05T08:35:50;22.50;99.90
14487;DHT22;7329;50.866;4.366;2022-07-05T08:37:53;22.50;99.90
14487;DHT22;7329;50.866;4.366;2022-07-05T08:39:55;22.60;99.90
14487;DHT22;7329;50.866;4.366;2022-07-05T08:41:58;22.60;99.90
14487;DHT22;7329;50.866;4.366;2022-07-05T08:44:02;22.60;99.90
14487;DHT22;7329;50.866;4.366;2022-07-05T08:46:07;22.70;99.90
14487;DHT22;7329;50.866;4.366;2022-07-05T08:48:11;22.70;99.90
14487;DHT22;7329;50.866;4.366;2022-07-05T08:50:15;22.80;99.90
14487;DHT22;7329;50.866;4.366;2022-07-05T08:52:18;22.80;99.90
14487;DHT22;7329;50.866;4.366;2022-07-05T08:54:22;22.70;99.90
14487;DHT22;7329;50.866;4.366;2022-07-05T08:56:25;22.70;99.90
14487;DHT22;7329;50.866;4.366;2022-07-05T08:58:28;22.70;99.90
14487;DHT22;7329;50.866;4.366;2022-07-05T09:00:30;22.80;99.90
14487;DHT22;7329;50.866;4.366;2022-07-05T09:02:34;22.80;99.90
14487;DHT22;7329;50.866;4.366;2022-07-05T09:04:42;22.80;99.90
14487;DHT22;7329;50.866;4.366;2022-07-05T09:06:46;22.80;99.90
14487;DHT22;7329;50.866;4.366;2022-07-05T09:08:51;22.80;99.90
14487;DHT22;7329;50.866;4.366;2022-07-05T09:10:54;22.80;99.90
14487;DHT22;7329;50.866;4.366;2022-07-05T09:12:57;22.80;99.90
14487;DHT22;7329;50.866;4.366;2022-07-05T09:14:59;22.80;99.90
14487;DHT22;7329;50.866;4.366;2022-07-05T09:17:02;22.80;99.90
14487;DHT22;7329;50.866;4.366;2022-07-05T09:19:07;22.80;99.90
14487;DHT22;7329;50.866;4.366;2022-07-05T09:21:14;22.90;99.90
14487;DHT22;7329;50.866;4.366;2022-07-05T09:23:20;23.00;99.90
14487;DHT22;7329;50.866;4.366;2022-07-05T09:25:24;23.00;99.90
14487;DHT22;7329;50.866;4.366;2022-07-05T09:27:32;23.00;99.90
14487;DHT22;7329;50.866;4.366;2022-07-05T09:29:35;22.90;99.90
14487;DHT22;7329;50.866;4.366;2022-07-05T09:31:38;22.90;99.90
14487;DHT22;7329;50.866;4.366;2022-07-05T09:33:48;22.80;99.90
14487;DHT22;7329;50.866;4.366;2022-07-05T09:35:54;22.80;99.90
14487;DHT22;7329;50.866;4.366;2022-07-05T09:37:58;22.80;99.90
14487;DHT22;7329;50.866;4.366;2022-07-05T09:40:00;22.80;99.90
14487;DHT22;7329;50.866;4.366;2022-07-05T09:42:13;22.80;99.90
14487;DHT22;7329;50.866;4.366;2022-07-05T09:44:24;23.00;99.90
14487;DHT22;7329;50.866;4.366;2022-07-05T09:46:29;23.10;99.90
14487;DHT22;7329;50.866;4.366;2022-07-05T09:48:33;23.10;99.90
14487;DHT22;7329;50.866;4.366;2022-07-05T09:50:36;23.10;99.90
14487;DHT22;7329;50.866;4.366;2022-07-05T09:52:41;23.10;99.90
14487;DHT22;7329;50.866;4.366;2022-07-05T09:55:00;23.10;99.90
14487;DHT22;7329;50.866;4.366;2022-07-05T09:57:03;23.20;99.90
14487;DHT22;7329;50.866;4.366;2022-07-05T09:59:15;23.40;99.90
14487;DHT22;7329;50.866;4.366;2022-07-05T10:01:25;23.40;99.90
14487;DHT22;7329;50.866;4.366;2022-07-05T10:03:28;23.40;99.90
14487;DHT22;7329;50.866;4.366;2022-07-05T10:05:32;23.40;99.90
14487;DHT22;7329;50.866;4.366;2022-07-05T10:07:35;23.50;99.90
14487;DHT22;7329;50.866;4.366;2022-07-05T10:09:39;23.70;99.90
14487;DHT22;7329;50.866;4.366;2022-07-05T10:11:43;23.80;99.90
14487;DHT22;7329;50.866;4.366;2022-07-05T10:13:47;23.90;99.90
14487;DHT22;7329;50.866;4.366;2022-07-05T10:15:51;24.00;99.90
14487;DHT22;7329;50.866;4.366;2022-07-05T10:17:54;24.00;99.90
14487;DHT22;7329;50.866;4.366;2022-07-05T10:19:59;24.10;99.90
14487;DHT22;7329;50.866;4.366;2022-07-05T10:22:02;24.20;99.90
14487;DHT22;7329;50.866;4.366;2022-07-05T10:24:05;24.20;99.90
14487;DHT22;7329;50.866;4.366;2022-07-05T10:26:09;24.30;99.90
14487;DHT22;7329;50.866;4.366;2022-07-05T10:28:12;24.30;99.90
14487;DHT22;7329;50.866;4.366;2022-07-05T10:30:15;24.40;99.90
14487;DHT22;7329;50.866;4.366;2022-07-05T10:32:22;24.40;99.90
14487;DHT22;7329;50.866;4.366;2022-07-05T10:34:25;24.40;99.90
14487;DHT22;7329;50.866;4.366;2022-07-05T10:36:28;24.40;99.90
14487;DHT22;7329;50.866;4.366;2022-07-05T10:38:31;24.40;99.90
14487;DHT22;7329;50.866;4.366;2022-07-05T10:40:37;24.50;99.90
14487;DHT22;7329;50.866;4.366;2022-07-05T10:42:46;24.50;99.90
14487;DHT22;7329;50.866;4.366;2022-07-05T10:44:49;24.50;99.90
14487;DHT22;7329;50.866;4.366;2022-07-05T10:46:51;24.50;99.90
14487;DHT22;7329;50.866;4.366;2022-07-05T10:49:10;24.50;99.90
14487;DHT22;7329;50.866;4.366;2022-07-05T10:51:15;24.50;99.90
14487;DHT22;7329;50.866;4.366;2022-07-05T10:53:19;24.50;99.90
14487;DHT22;7329;50.866;4.366;2022-07-05T10:55:23;24.50;99.90
14487;DHT22;7329;50.866;4.366;2022-07-05T10:57:25;24.60;99.90
14487;DHT22;7329;50.866;4.366;2022-07-05T10:59:29;24.60;99.90
14487;DHT22;7329;50.866;4.366;2022-07-05T11:01:51;24.60;99.90
14487;DHT22;7329;50.866;4.366;2022-07-05T11:04:27;24.60;99.90
14487;DHT22;7329;50.866;4.366;2022-07-05T11:06:40;24.70;99.90
14487;DHT22;7329;50.866;4.366;2022-07-05T11:11:26;24.70;99.90
14487;DHT22;7329;50.866;4.366;2022-07-05T11:13:37;24.60;99.90
14487;DHT22;7329;50.866;4.366;2022-07-05T11:18:23;24.60;99.90
14487;DHT22;7329;50.866;4.366;2022-07-05T11:20:27;24.70;99.90
14487;DHT22;7329;50.866;4.366;2022-07-05T11:22:30;24.70;99.90
14487;DHT22;7329;50.866;4.366;2022-07-05T11:24:34;24.70;99.90
14487;DHT22;7329;50.866;4.366;2022-07-05T11:26:37;24.70;99.90
14487;DHT22;7329;50.866;4.366;2022-07-05T11:28:42;24.70;99.90
14487;DHT22;7329;50.866;4.366;2022-07-05T11:30:46;24.70;99.90
14487;DHT22;7329;50.866;4.366;2022-07-05T11:32:49;24.70;99.90
14487;DHT22;7329;50.866;4.366;2022-07-05T11:34:54;24.70;99.90
14487;DHT22;7329;50.866;4.366;2022-07-05T11:37:18;24.70;99.90
14487;DHT22;7329;50.866;4.366;2022-07-05T11:39:24;24.50;99.90
14487;DHT22;7329;50.866;4.366;2022-07-05T11:41:30;24.50;99.90
14487;DHT22;7329;50.866;4.366;2022-07-05T11:43:33;24.40;99.90
14487;DHT22;7329;50.866;4.366;2022-07-05T11:45:35;24.20;99.90
14487;DHT22;7329;50.866;4.366;2022-07-05T11:47:40;24.20;99.90
14487;DHT22;7329;50.866;4.366;2022-07-05T11:49:55;24.10;99.90
14487;DHT22;7329;50.866;4.366;2022-07-05T11:51:58;24.10;99.90
14487;DHT22;7329;50.866;4.366;2022-07-05T11:54:02;24.10;99.90
14487;DHT22;7329;50.866;4.366;2022-07-05T11:56:05;24.10;99.90
14487;DHT22;7329;50.866;4.366;2022-07-05T11:58:09;24.00;99.90
14487;DHT22;7329;50.866;4.366;2022-07-05T12:00:12;23.90;99.90
14487;DHT22;7329;50.866;4.366;2022-07-05T12:02:15;23.90;99.90
14487;DHT22;7329;50.866;4.366;2022-07-05T12:04:21;24.00;99.90
14487;DHT22;7329;50.866;4.366;2022-07-05T12:06:25;23.90;99.90
14487;DHT22;7329;50.866;4.366;2022-07-05T12:08:27;23.90;99.90
14487;DHT22;7329;50.866;4.366;2022-07-05T12:10:31;23.90;99.90
14487;DHT22;7329;50.866;4.366;2022-07-05T12:12:50;23.90;99.90
14487;DHT22;7329;50.866;4.366;2022-07-05T12:14:53;23.90;99.90
14487;DHT22;7329;50.866;4.366;2022-07-05T12:17:13;23.90;99.90
14487;DHT22;7329;50.866;4.366;2022-07-05T12:19:25;23.90;99.90
14487;DHT22;7329;50.866;4.366;2022-07-05T12:21:29;24.00;99.90
14487;DHT22;7329;50.866;4.366;2022-07-05T12:23:31;24.00;99.90
14487;DHT22;7329;50.866;4.366;2022-07-05T12:25:34;24.10;99.90
14487;DHT22;7329;50.866;4.366;2022-07-05T12:27:38;24.00;99.90
14487;DHT22;7329;50.866;4.366;2022-07-05T12:29:40;24.00;99.90
14487;DHT22;7329;50.866;4.366;2022-07-05T12:31:58;24.00;99.90
14487;DHT22;7329;50.866;4.366;2022-07-05T12:34:16;23.90;99.90
14487;DHT22;7329;50.866;4.366;2022-07-05T12:36:20;23.90;99.90
14487;DHT22;7329;50.866;4.366;2022-07-05T12:38:29;23.80;99.90
14487;DHT22;7329;50.866;4.366;2022-07-05T12:40:32;23.80;99.90
14487;DHT22;7329;50.866;4.366;2022-07-05T12:42:36;23.70;99.90
14487;DHT22;7329;50.866;4.366;2022-07-05T12:44:40;23.80;99.90
14487;DHT22;7329;50.866;4.366;2022-07-05T12:46:43;23.90;99.90
14487;DHT22;7329;50.866;4.366;2022-07-05T12:48:51;23.90;99.90
14487;DHT22;7329;50.866;4.366;2022-07-05T12:50:55;23.90;99.90
14487;DHT22;7329;50.866;4.366;2022-07-05T12:53:02;24.10;99.90
14487;DHT22;7329;50.866;4.366;2022-07-05T12:55:35;24.10;99.90
14487;DHT22;7329;50.866;4.366;2022-07-05T12:57:56;24.00;99.90
14487;DHT22;7329;50.866;4.366;2022-07-05T13:00:06;24.00;99.90
14487;DHT22;7329;50.866;4.366;2022-07-05T13:02:09;23.90;99.90
14487;DHT22;7329;50.866;4.366;2022-07-05T13:04:15;23.80;99.90
14487;DHT22;7329;50.866;4.366;2022-07-05T13:06:18;23.80;99.90
14487;DHT22;7329;50.866;4.366;2022-07-05T13:08:27;23.80;99.90
14487;DHT22;7329;50.866;4.366;2022-07-05T13:10:30;23.90;99.90
14487;DHT22;7329;50.866;4.366;2022-07-05T13:12:35;23.90;99.90
14487;DHT22;7329;50.866;4.366;2022-07-05T13:14:40;23.90;99.90
14487;DHT22;7329;50.866;4.366;2022-07-05T13:16:42;23.90;99.90
14487;DHT22;7329;50.866;4.366;2022-07-05T13:18:45;23.90;99.90
14487;DHT22;7329;50.866;4.366;2022-07-05T13:20:48;23.90;99.90